createdAt,value
2023-04-02T00:00:07.595Z,8.79
2023-04-02T00:05:10.141Z,8.79
2023-04-02T00:10:11.551Z,8.80
2023-04-02T00:15:12.754Z,8.82
2023-04-02T00:20:14.212Z,8.82
2023-04-02T00:25:15.472Z,8.77
2023-04-02T00:30:17.155Z,8.61
2023-04-02T00:35:18.323Z,8.32
2023-04-02T00:40:19.562Z,8.12
2023-04-02T00:45:21.625Z,8.07
2023-04-02T00:50:22.839Z,7.92
2023-04-02T00:55:24.348Z,7.84
2023-04-02T01:00:25.510Z,7.70
2023-04-02T01:05:26.781Z,7.66
2023-04-02T01:10:28.426Z,7.64
2023-04-02T01:15:30.571Z,7.57
2023-04-02T01:20:31.831Z,7.53
2023-04-02T01:25:33.262Z,7.51
2023-04-02T01:30:34.684Z,7.43
2023-04-02T01:35:36.028Z,7.37
2023-04-02T01:40:37.554Z,7.32
2023-04-02T01:45:38.775Z,7.22
2023-04-02T01:50:40.051Z,7.15
2023-04-02T01:55:41.271Z,7.10
2023-04-02T02:00:42.570Z,7.06
2023-04-02T02:05:43.703Z,7.03
2023-04-02T02:10:44.885Z,7.00
2023-04-02T02:15:46.490Z,6.93
2023-04-02T02:20:47.760Z,6.80
2023-04-02T02:25:48.929Z,6.70
2023-04-02T02:30:50.220Z,6.64
2023-04-02T02:35:51.598Z,6.57
2023-04-02T02:40:52.855Z,6.49
2023-04-02T02:45:54.092Z,6.43
2023-04-02T02:50:55.645Z,6.43
2023-04-02T02:55:56.853Z,6.40
2023-04-02T03:00:58.096Z,6.35
2023-04-02T03:05:59.235Z,6.32
2023-04-02T03:11:01.060Z,6.22
2023-04-02T03:16:02.345Z,6.21
2023-04-02T03:21:03.671Z,6.16
2023-04-02T03:26:05.001Z,6.16
2023-04-02T03:31:06.342Z,6.11
2023-04-02T03:36:07.882Z,6.08
2023-04-02T03:41:09.125Z,6.15
2023-04-02T03:46:10.507Z,6.11
2023-04-02T03:51:11.739Z,6.03
2023-04-02T03:56:12.895Z,5.99
2023-04-02T04:01:14.075Z,5.87
2023-04-02T04:06:15.344Z,5.88
2023-04-02T04:11:16.648Z,5.85
2023-04-02T04:16:17.929Z,5.82
2023-04-02T04:21:30.753Z,5.75
2023-04-02T04:26:34.829Z,5.74
2023-04-02T04:31:38.940Z,5.71
2023-04-02T04:36:41.495Z,5.67
2023-04-02T04:41:42.712Z,5.61
2023-04-02T04:46:43.855Z,5.59
2023-04-02T04:51:45.113Z,5.56
2023-04-02T04:56:46.305Z,5.53
2023-04-02T05:01:47.549Z,5.57
2023-04-02T05:06:48.769Z,5.54
2023-04-02T05:11:49.928Z,5.53
2023-04-02T05:16:51.142Z,5.54
2023-04-02T05:21:52.345Z,5.49
2023-04-02T05:26:53.570Z,5.48
2023-04-02T05:31:54.903Z,5.44
2023-04-02T05:36:56.051Z,5.47
2023-04-02T05:41:57.286Z,5.40
2023-04-02T05:46:58.628Z,5.37
2023-04-02T05:51:59.921Z,5.38
2023-04-02T05:57:01.088Z,5.36
2023-04-02T06:02:03.798Z,5.36
2023-04-02T06:07:05.123Z,5.31
2023-04-02T06:12:06.308Z,5.29
2023-04-02T06:17:07.564Z,5.49
2023-04-02T06:22:08.739Z,5.66
2023-04-02T06:27:09.897Z,5.58
2023-04-02T06:32:11.720Z,5.38
2023-04-02T06:37:12.885Z,5.11
2023-04-02T06:42:14.174Z,5.00
2023-04-02T06:47:17.289Z,4.95
2023-04-02T06:52:18.497Z,4.99
2023-04-02T06:57:19.701Z,4.87
2023-04-02T07:02:20.902Z,4.82
2023-04-02T07:07:22.058Z,4.84
2023-04-02T07:12:23.795Z,4.84
2023-04-02T07:17:25.044Z,4.87
2023-04-02T07:22:26.799Z,4.88
2023-04-02T07:27:28.051Z,4.94
2023-04-02T07:32:29.351Z,4.85
2023-04-02T07:37:30.795Z,4.84
2023-04-02T07:42:32.040Z,4.99
2023-04-02T07:47:33.238Z,4.98
2023-04-02T07:52:34.695Z,4.82
2023-04-02T07:57:35.866Z,4.88
2023-04-02T08:02:37.202Z,4.85
2023-04-02T08:07:39.143Z,4.87
2023-04-02T08:12:40.690Z,4.98
2023-04-02T08:17:43.008Z,5.02
2023-04-02T08:22:44.241Z,5.03
2023-04-02T08:27:45.462Z,5.02
2023-04-02T08:32:46.653Z,5.08
2023-04-02T08:37:47.950Z,5.02
2023-04-02T08:42:49.446Z,4.93
2023-04-02T08:47:51.200Z,5.12
2023-04-02T08:52:52.540Z,5.16
2023-04-02T08:57:53.739Z,5.12
2023-04-02T09:02:55.010Z,5.10
2023-04-02T09:07:56.332Z,5.18
2023-04-02T09:12:58.628Z,5.08
2023-04-02T09:17:59.921Z,5.21
2023-04-02T09:23:01.248Z,5.21
2023-04-02T09:28:02.662Z,5.16
2023-04-02T09:33:07.337Z,5.25
2023-04-02T09:38:08.892Z,5.14
2023-04-02T09:43:10.048Z,5.14
2023-04-02T09:48:11.265Z,5.09
2023-04-02T09:53:12.422Z,5.03
2023-04-02T09:58:13.690Z,5.20
2023-04-02T10:03:14.878Z,5.32
2023-04-02T10:08:17.160Z,5.43
2023-04-02T10:13:18.697Z,5.66
2023-04-02T10:18:19.922Z,5.41
2023-04-02T10:23:21.614Z,5.41
2023-04-02T10:28:22.830Z,5.52
2023-04-02T10:33:24.034Z,5.67
2023-04-02T10:38:25.242Z,5.76
2023-04-02T10:43:26.444Z,5.89
2023-04-02T10:48:27.677Z,5.92
2023-04-02T10:53:28.810Z,5.98
2023-04-02T10:58:29.973Z,6.50
2023-04-02T11:03:31.557Z,6.46
2023-04-02T11:08:32.915Z,6.35
2023-04-02T11:13:34.364Z,6.29
2023-04-02T11:18:38.752Z,6.29
2023-04-02T11:23:40.176Z,6.48
2023-04-02T11:28:41.573Z,6.29
2023-04-02T11:33:46.177Z,6.38
2023-04-02T11:38:49.100Z,6.20
2023-04-02T11:43:50.981Z,6.49
2023-04-02T11:48:54.656Z,6.49
2023-04-02T11:53:58.343Z,6.51
2023-04-02T11:58:59.552Z,6.42
2023-04-02T12:04:00.908Z,6.54
2023-04-02T12:09:04.743Z,6.16
2023-04-02T12:14:05.900Z,6.29
2023-04-02T12:19:07.090Z,6.39
2023-04-02T12:24:08.347Z,6.64
2023-04-02T12:29:09.658Z,6.72
2023-04-02T12:34:10.949Z,6.90
2023-04-02T12:39:12.165Z,6.71
2023-04-02T12:44:15.435Z,6.83
2023-04-02T12:49:16.652Z,6.72
2023-04-02T12:54:18.024Z,6.90
2023-04-02T12:59:19.184Z,6.86
2023-04-02T13:04:22.096Z,7.16
2023-04-02T13:09:23.305Z,7.18
2023-04-02T13:14:24.536Z,7.26
2023-04-02T13:19:25.756Z,7.39
2023-04-02T13:24:27.013Z,7.69
2023-04-02T13:29:28.363Z,7.80
2023-04-02T13:34:29.561Z,7.72
2023-04-02T13:39:30.860Z,7.63
2023-04-02T13:44:32.107Z,7.92
2023-04-02T13:49:33.362Z,8.04
2023-04-02T13:54:35.073Z,7.91
2023-04-02T13:59:36.421Z,7.85
2023-04-02T14:04:37.901Z,7.48
2023-04-02T14:09:39.083Z,7.45
2023-04-02T14:14:40.444Z,7.26
2023-04-02T14:19:41.686Z,7.02
2023-04-02T14:24:42.902Z,7.00
2023-04-02T14:29:44.174Z,6.71
2023-04-02T14:34:45.575Z,6.80
2023-04-02T14:39:46.768Z,7.11
2023-04-02T14:44:48.775Z,7.14
2023-04-02T14:49:50.038Z,7.13
2023-04-02T14:54:52.158Z,7.24
2023-04-02T14:59:53.342Z,6.61
2023-04-02T15:04:54.713Z,6.50
2023-04-02T15:09:56.359Z,6.44
2023-04-02T15:14:57.711Z,6.57
2023-04-02T15:19:58.975Z,6.70
2023-04-02T15:25:00.307Z,6.91
2023-04-02T15:30:01.873Z,6.75
2023-04-02T15:35:03.639Z,6.45
2023-04-02T15:40:04.888Z,6.50
2023-04-02T15:45:06.048Z,6.65
2023-04-02T15:50:07.264Z,6.83
2023-04-02T15:55:09.604Z,7.28
2023-04-02T16:00:11.215Z,7.35
2023-04-02T16:05:12.359Z,7.43
2023-04-02T16:10:14.144Z,7.62
2023-04-02T16:15:15.605Z,7.48
2023-04-02T16:20:16.840Z,7.47
2023-04-02T16:25:19.396Z,7.55
2023-04-02T16:30:20.701Z,7.45
2023-04-02T16:35:41.792Z,7.37
2023-04-02T16:40:43.113Z,7.34
2023-04-02T16:45:44.443Z,7.06
2023-04-02T16:50:45.919Z,7.13
2023-04-02T16:55:47.164Z,7.14
2023-04-02T17:00:48.508Z,6.95
2023-04-02T17:05:49.708Z,6.67
2023-04-02T17:10:51.075Z,6.68
2023-04-02T17:15:52.349Z,6.66
2023-04-02T17:20:53.620Z,6.60
2023-04-02T17:25:54.843Z,6.50
2023-04-02T17:30:56.037Z,6.43
2023-04-02T17:35:57.348Z,6.35
2023-04-02T17:40:58.568Z,6.33
2023-04-02T17:45:59.786Z,6.42
2023-04-02T17:51:01.082Z,6.38
2023-04-02T17:56:02.280Z,6.34
2023-04-02T18:01:03.613Z,6.20
2023-04-02T18:06:06.526Z,6.11
2023-04-02T18:11:08.637Z,5.90
2023-04-02T18:16:09.842Z,5.76
2023-04-02T18:21:11.072Z,5.66
2023-04-02T18:26:12.248Z,5.59
2023-04-02T18:31:13.869Z,5.55
2023-04-02T18:36:15.089Z,5.53
2023-04-02T18:41:16.845Z,5.47
2023-04-02T18:46:18.231Z,5.39
2023-04-02T18:51:19.773Z,5.29
2023-04-02T18:56:22.290Z,5.22
2023-04-02T19:01:23.625Z,5.14
2023-04-02T19:06:24.848Z,5.12
2023-04-02T19:11:29.649Z,5.08
2023-04-02T19:16:31.153Z,5.08
2023-04-02T19:21:32.528Z,5.01
2023-04-02T19:26:33.770Z,4.80
2023-04-02T19:31:35.080Z,4.68
2023-04-02T19:36:36.437Z,4.56
2023-04-02T19:41:37.669Z,4.37
2023-04-02T19:46:38.904Z,4.22
2023-04-02T19:51:40.160Z,4.23
2023-04-02T19:56:42.433Z,4.26
2023-04-02T20:01:43.623Z,4.16
2023-04-02T20:06:44.832Z,4.06
2023-04-02T20:11:46.606Z,3.97
2023-04-02T20:16:48.020Z,3.89
2023-04-02T20:21:49.200Z,3.77
2023-04-02T20:26:50.342Z,3.52
2023-04-02T20:31:51.791Z,3.40
2023-04-02T20:36:53.535Z,3.25
2023-04-02T20:41:55.596Z,3.12
2023-04-02T20:46:56.862Z,3.01
2023-04-02T20:51:58.060Z,2.92
2023-04-02T20:56:59.308Z,2.86
2023-04-02T21:02:00.499Z,2.84
2023-04-02T21:07:01.720Z,2.70
2023-04-02T21:12:02.965Z,2.61
2023-04-02T21:17:04.314Z,2.62
2023-04-02T21:22:05.671Z,2.65
2023-04-02T21:27:06.945Z,2.58
2023-04-02T21:32:20.383Z,2.50
2023-04-02T21:37:22.300Z,2.37
2023-04-02T21:42:24.072Z,2.28
2023-04-02T21:47:25.388Z,2.33
2023-04-02T21:52:26.549Z,2.41
2023-04-02T21:57:27.801Z,2.34
2023-04-02T22:02:29.088Z,2.30
2023-04-02T22:07:31.151Z,2.19
2023-04-02T22:12:32.291Z,2.13
2023-04-02T22:17:33.508Z,2.13
2023-04-02T22:22:34.708Z,2.19
2023-04-02T22:27:35.907Z,2.13
2023-04-02T22:32:37.089Z,2.05
2023-04-02T22:37:38.335Z,1.99
2023-04-02T22:42:39.565Z,2.02
2023-04-02T22:47:40.972Z,2.03
2023-04-02T22:52:42.197Z,1.92
2023-04-02T22:57:43.402Z,1.77
2023-04-02T23:02:44.741Z,1.75
2023-04-02T23:07:45.945Z,1.75
2023-04-02T23:12:47.129Z,1.74
2023-04-02T23:17:48.379Z,1.70
2023-04-02T23:22:49.527Z,1.67
2023-04-02T23:27:50.728Z,1.62
2023-04-02T23:32:52.003Z,1.56
2023-04-02T23:37:53.208Z,1.59
2023-04-02T23:42:54.333Z,1.57
2023-04-02T23:47:55.700Z,1.59
2023-04-02T23:52:56.949Z,1.56
2023-04-02T23:57:58.087Z,1.50
